sensor_id;sensor_type;location;lat;lon;timestamp;P1;durP1;ratioP1;P2;durP2;ratioP2
33148;SDS011;19506;51.040;3.856;2023-02-01T15:32:33;9.70;;;4.00;;
33148;SDS011;19506;51.040;3.856;2023-02-01T15:35:01;14.30;;;5.50;;
33148;SDS011;19506;51.040;3.856;2023-02-01T15:37:27;15.15;;;5.00;;
33148;SDS011;19506;51.040;3.856;2023-02-01T15:42:35;14.27;;;3.97;;
33148;SDS011;19506;51.040;3.856;2023-02-01T15:45:20;14.13;;;4.22;;
33148;SDS011;19506;51.040;3.856;2023-02-01T15:47:55;21.30;;;4.40;;
33148;SDS011;19506;51.040;3.856;2023-02-01T15:50:22;15.00;;;4.63;;
33148;SDS011;19506;51.040;3.856;2023-02-01T15:52:52;12.13;;;4.38;;
33148;SDS011;19506;51.040;3.856;2023-02-01T15:57:49;11.60;;;4.03;;
33148;SDS011;19506;51.040;3.856;2023-02-01T16:00:22;22.85;;;4.45;;
33148;SDS011;19506;51.040;3.856;2023-02-01T16:02:54;14.23;;;4.38;;
33148;SDS011;19506;51.040;3.856;2023-02-01T16:05:31;13.93;;;4.05;;
33148;SDS011;19506;51.040;3.856;2023-02-01T16:08:03;15.27;;;5.28;;
33148;SDS011;19506;51.040;3.856;2023-02-01T16:13:07;21.88;;;4.22;;
33148;SDS011;19506;51.040;3.856;2023-02-01T16:15:32;11.63;;;4.20;;
33148;SDS011;19506;51.040;3.856;2023-02-01T16:17:58;23.05;;;4.30;;
33148;SDS011;19506;51.040;3.856;2023-02-01T16:20:25;18.15;;;4.63;;
33148;SDS011;19506;51.040;3.856;2023-02-01T16:22:51;12.98;;;4.10;;
33148;SDS011;19506;51.040;3.856;2023-02-01T16:25:17;15.20;;;5.80;;
33148;SDS011;19506;51.040;3.856;2023-02-01T16:27:42;13.88;;;4.50;;
33148;SDS011;19506;51.040;3.856;2023-02-01T16:30:08;22.75;;;4.20;;
33148;SDS011;19506;51.040;3.856;2023-02-01T16:32:35;14.88;;;4.10;;
33148;SDS011;19506;51.040;3.856;2023-02-01T16:35:05;16.10;;;4.20;;
33148;SDS011;19506;51.040;3.856;2023-02-01T16:37:44;13.57;;;3.80;;
33148;SDS011;19506;51.040;3.856;2023-02-01T16:40:16;11.98;;;3.92;;
33148;SDS011;19506;51.040;3.856;2023-02-01T16:42:43;12.85;;;4.07;;
33148;SDS011;19506;51.040;3.856;2023-02-01T16:45:11;16.95;;;4.15;;
33148;SDS011;19506;51.040;3.856;2023-02-01T16:47:37;16.15;;;4.28;;
33148;SDS011;19506;51.040;3.856;2023-02-01T16:50:13;16.67;;;4.45;;
33148;SDS011;19506;51.040;3.856;2023-02-01T16:52:41;13.07;;;3.90;;
33148;SDS011;19506;51.040;3.856;2023-02-01T16:55:14;16.90;;;4.15;;
33148;SDS011;19506;51.040;3.856;2023-02-01T16:57:41;15.82;;;4.25;;
33148;SDS011;19506;51.040;3.856;2023-02-01T17:00:08;10.48;;;3.80;;
33148;SDS011;19506;51.040;3.856;2023-02-01T17:02:37;18.40;;;3.47;;
33148;SDS011;19506;51.040;3.856;2023-02-01T17:05:04;16.10;;;4.63;;
33148;SDS011;19506;51.040;3.856;2023-02-01T17:07:31;10.93;;;3.97;;
33148;SDS011;19506;51.040;3.856;2023-02-01T17:09:56;17.27;;;3.97;;
33148;SDS011;19506;51.040;3.856;2023-02-01T17:12:29;14.93;;;4.28;;
33148;SDS011;19506;51.040;3.856;2023-02-01T17:14:56;13.98;;;4.75;;
33148;SDS011;19506;51.040;3.856;2023-02-01T17:17:23;13.23;;;3.90;;
33148;SDS011;19506;51.040;3.856;2023-02-01T17:19:52;12.23;;;4.15;;
33148;SDS011;19506;51.040;3.856;2023-02-01T17:22:21;11.55;;;3.72;;
33148;SDS011;19506;51.040;3.856;2023-02-01T17:24:47;11.48;;;3.70;;
33148;SDS011;19506;51.040;3.856;2023-02-01T17:27:13;16.92;;;4.57;;
33148;SDS011;19506;51.040;3.856;2023-02-01T17:29:40;11.73;;;4.22;;
33148;SDS011;19506;51.040;3.856;2023-02-01T17:32:09;15.27;;;3.80;;
33148;SDS011;19506;51.040;3.856;2023-02-01T17:34:46;12.80;;;3.90;;
33148;SDS011;19506;51.040;3.856;2023-02-01T17:37:25;15.32;;;4.03;;
33148;SDS011;19506;51.040;3.856;2023-02-01T17:39:51;16.67;;;3.92;;
33148;SDS011;19506;51.040;3.856;2023-02-01T17:42:20;13.27;;;4.00;;
33148;SDS011;19506;51.040;3.856;2023-02-01T17:44:46;11.60;;;4.30;;
33148;SDS011;19506;51.040;3.856;2023-02-01T17:47:12;17.73;;;5.95;;
33148;SDS011;19506;51.040;3.856;2023-02-01T17:49:38;15.63;;;4.43;;
33148;SDS011;19506;51.040;3.856;2023-02-01T17:52:04;18.83;;;4.40;;
33148;SDS011;19506;51.040;3.856;2023-02-01T17:54:30;23.88;;;4.90;;
33148;SDS011;19506;51.040;3.856;2023-02-01T17:56:56;17.88;;;4.82;;
33148;SDS011;19506;51.040;3.856;2023-02-01T17:59:27;25.88;;;5.45;;
33148;SDS011;19506;51.040;3.856;2023-02-01T18:01:53;25.02;;;5.60;;
33148;SDS011;19506;51.040;3.856;2023-02-01T18:04:24;30.17;;;4.90;;
33148;SDS011;19506;51.040;3.856;2023-02-01T18:06:50;20.05;;;5.43;;
33148;SDS011;19506;51.040;3.856;2023-02-01T18:09:16;27.42;;;5.80;;
33148;SDS011;19506;51.040;3.856;2023-02-01T18:11:41;28.92;;;7.22;;
33148;SDS011;19506;51.040;3.856;2023-02-01T18:14:09;38.17;;;8.60;;
33148;SDS011;19506;51.040;3.856;2023-02-01T18:16:38;48.72;;;10.45;;
33148;SDS011;19506;51.040;3.856;2023-02-01T18:19:04;42.17;;;10.70;;
33148;SDS011;19506;51.040;3.856;2023-02-01T18:21:34;60.40;;;11.13;;
33148;SDS011;19506;51.040;3.856;2023-02-01T18:24:09;50.10;;;10.77;;
33148;SDS011;19506;51.040;3.856;2023-02-01T18:26:38;49.88;;;10.18;;
33148;SDS011;19506;51.040;3.856;2023-02-01T18:29:04;47.85;;;9.93;;
33148;SDS011;19506;51.040;3.856;2023-02-01T18:31:30;37.10;;;9.75;;
33148;SDS011;19506;51.040;3.856;2023-02-01T18:33:58;46.00;;;9.68;;
33148;SDS011;19506;51.040;3.856;2023-02-01T18:36:24;38.17;;;8.70;;
33148;SDS011;19506;51.040;3.856;2023-02-01T18:38:51;42.80;;;11.73;;
33148;SDS011;19506;51.040;3.856;2023-02-01T18:41:20;39.25;;;8.20;;
33148;SDS011;19506;51.040;3.856;2023-02-01T18:43:47;54.15;;;11.00;;
33148;SDS011;19506;51.040;3.856;2023-02-01T18:46:14;31.20;;;8.82;;
33148;SDS011;19506;51.040;3.856;2023-02-01T18:48:41;48.20;;;11.60;;
33148;SDS011;19506;51.040;3.856;2023-02-01T18:51:09;28.25;;;8.13;;
33148;SDS011;19506;51.040;3.856;2023-02-01T18:53:36;31.35;;;8.57;;
33148;SDS011;19506;51.040;3.856;2023-02-01T18:56:02;42.08;;;9.35;;
33148;SDS011;19506;51.040;3.856;2023-02-01T18:58:28;34.85;;;8.18;;
33148;SDS011;19506;51.040;3.856;2023-02-01T19:00:55;44.13;;;7.18;;
33148;SDS011;19506;51.040;3.856;2023-02-01T19:03:23;37.28;;;7.65;;
33148;SDS011;19506;51.040;3.856;2023-02-01T19:05:56;30.20;;;7.07;;
33148;SDS011;19506;51.040;3.856;2023-02-01T19:08:22;28.25;;;7.35;;
33148;SDS011;19506;51.040;3.856;2023-02-01T19:10:49;30.77;;;7.82;;
33148;SDS011;19506;51.040;3.856;2023-02-01T19:13:15;38.60;;;7.57;;
33148;SDS011;19506;51.040;3.856;2023-02-01T19:15:44;33.97;;;6.22;;
33148;SDS011;19506;51.040;3.856;2023-02-01T19:18:10;35.35;;;6.90;;
33148;SDS011;19506;51.040;3.856;2023-02-01T19:20:37;34.70;;;7.30;;
33148;SDS011;19506;51.040;3.856;2023-02-01T19:23:09;32.40;;;6.82;;
33148;SDS011;19506;51.040;3.856;2023-02-01T19:25:36;27.75;;;5.88;;
33148;SDS011;19506;51.040;3.856;2023-02-01T19:28:02;22.45;;;5.20;;
33148;SDS011;19506;51.040;3.856;2023-02-01T19:30:27;29.98;;;7.38;;
33148;SDS011;19506;51.040;3.856;2023-02-01T19:32:53;22.77;;;7.20;;
33148;SDS011;19506;51.040;3.856;2023-02-01T19:35:19;25.88;;;5.40;;
33148;SDS011;19506;51.040;3.856;2023-02-01T19:37:46;22.45;;;5.25;;
33148;SDS011;19506;51.040;3.856;2023-02-01T19:40:14;21.40;;;5.93;;
33148;SDS011;19506;51.040;3.856;2023-02-01T19:42:41;28.95;;;6.85;;
33148;SDS011;19506;51.040;3.856;2023-02-01T19:45:07;27.95;;;6.25;;
33148;SDS011;19506;51.040;3.856;2023-02-01T19:47:33;16.30;;;5.78;;
33148;SDS011;19506;51.040;3.856;2023-02-01T19:49:59;32.58;;;6.32;;
33148;SDS011;19506;51.040;3.856;2023-02-01T19:52:25;22.23;;;6.47;;
33148;SDS011;19506;51.040;3.856;2023-02-01T19:54:51;19.50;;;5.60;;
33148;SDS011;19506;51.040;3.856;2023-02-01T19:57:16;17.15;;;5.65;;
33148;SDS011;19506;51.040;3.856;2023-02-01T19:59:42;20.45;;;5.10;;
33148;SDS011;19506;51.040;3.856;2023-02-01T20:02:17;23.30;;;5.28;;
33148;SDS011;19506;51.040;3.856;2023-02-01T20:04:43;27.23;;;5.25;;
33148;SDS011;19506;51.040;3.856;2023-02-01T20:07:08;19.25;;;4.60;;
33148;SDS011;19506;51.040;3.856;2023-02-01T20:09:37;18.88;;;5.13;;
33148;SDS011;19506;51.040;3.856;2023-02-01T20:12:06;18.38;;;5.25;;
33148;SDS011;19506;51.040;3.856;2023-02-01T20:14:32;21.35;;;5.68;;
33148;SDS011;19506;51.040;3.856;2023-02-01T20:16:58;16.67;;;4.70;;
33148;SDS011;19506;51.040;3.856;2023-02-01T20:19:24;18.90;;;5.47;;
33148;SDS011;19506;51.040;3.856;2023-02-01T20:21:50;21.58;;;5.45;;
33148;SDS011;19506;51.040;3.856;2023-02-01T20:24:17;23.85;;;5.63;;
33148;SDS011;19506;51.040;3.856;2023-02-01T20:26:43;22.13;;;5.50;;
33148;SDS011;19506;51.040;3.856;2023-02-01T20:29:09;17.92;;;4.80;;
33148;SDS011;19506;51.040;3.856;2023-02-01T20:31:35;28.80;;;5.18;;
33148;SDS011;19506;51.040;3.856;2023-02-01T20:34:01;16.02;;;5.10;;
33148;SDS011;19506;51.040;3.856;2023-02-01T20:36:28;17.50;;;4.78;;
33148;SDS011;19506;51.040;3.856;2023-02-01T20:38:54;20.23;;;5.50;;
33148;SDS011;19506;51.040;3.856;2023-02-01T20:41:21;14.95;;;4.40;;
33148;SDS011;19506;51.040;3.856;2023-02-01T20:43:48;18.40;;;5.82;;
33148;SDS011;19506;51.040;3.856;2023-02-01T20:46:14;20.35;;;5.20;;
33148;SDS011;19506;51.040;3.856;2023-02-01T20:48:43;23.60;;;4.95;;
33148;SDS011;19506;51.040;3.856;2023-02-01T20:51:11;15.63;;;4.40;;
33148;SDS011;19506;51.040;3.856;2023-02-01T20:53:38;15.95;;;4.82;;
